createdAt,value
2022-12-13T00:01:57.254Z,84.50
2022-12-13T00:04:26.098Z,84.50
2022-12-13T00:06:57.158Z,84.30
2022-12-13T00:09:25.515Z,84.40
2022-12-13T00:11:55.288Z,84.60
2022-12-13T00:14:23.720Z,84.70
2022-12-13T00:16:51.448Z,84.70
2022-12-13T00:19:19.118Z,84.90
2022-12-13T00:21:46.727Z,84.70
2022-12-13T00:24:15.148Z,84.80
2022-12-13T00:26:42.815Z,84.40
2022-12-13T00:29:11.644Z,84.10
2022-12-13T00:34:27.320Z,83.50
2022-12-13T00:36:55.260Z,83.70
2022-12-13T00:39:22.875Z,83.60
2022-12-13T00:41:50.743Z,83.40
2022-12-13T00:44:20.199Z,83.90
2022-12-13T00:46:47.842Z,82.90
2022-12-13T00:49:15.438Z,82.80
2022-12-13T00:51:43.209Z,82.80
2022-12-13T00:54:12.026Z,82.70
2022-12-13T00:56:39.654Z,82.60
2022-12-13T00:59:07.189Z,82.50
2022-12-13T01:01:39.534Z,82.30
2022-12-13T01:04:08.241Z,82.10
2022-12-13T01:06:44.055Z,82.00
2022-12-13T01:09:19.342Z,82.00
2022-12-13T01:11:47.720Z,80.10
2022-12-13T01:14:15.628Z,81.40
2022-12-13T01:16:44.852Z,81.50
2022-12-13T01:19:12.704Z,81.50
2022-12-13T01:21:40.427Z,81.40
2022-12-13T01:24:08.298Z,81.10
2022-12-13T01:26:38.099Z,81.00
2022-12-13T01:29:06.544Z,81.10
2022-12-13T01:31:34.621Z,80.80
2022-12-13T01:34:10.741Z,80.90
2022-12-13T01:36:39.602Z,80.90
2022-12-13T01:39:14.895Z,80.30
2022-12-13T01:41:56.799Z,80.40
2022-12-13T01:44:42.771Z,79.90
2022-12-13T01:47:13.507Z,79.90
2022-12-13T01:49:41.488Z,79.90
2022-12-13T01:52:10.921Z,79.90
2022-12-13T01:54:46.619Z,79.30
2022-12-13T01:57:18.350Z,76.90
2022-12-13T01:59:46.570Z,78.60
2022-12-13T02:02:16.107Z,77.80
2022-12-13T02:04:57.363Z,79.20
2022-12-13T02:07:28.559Z,78.30
2022-12-13T02:10:01.691Z,77.50
2022-12-13T02:12:32.447Z,76.40
2022-12-13T02:15:15.218Z,77.20
2022-12-13T02:17:49.770Z,77.70
2022-12-13T02:20:35.764Z,78.50
2022-12-13T02:23:14.677Z,77.60
2022-12-13T02:25:52.069Z,77.10
2022-12-13T02:28:32.806Z,78.20
2022-12-13T02:31:06.665Z,77.90
2022-12-13T02:33:40.452Z,76.40
2022-12-13T02:36:25.234Z,77.30
2022-12-13T02:38:56.738Z,76.60
2022-12-13T02:41:30.114Z,76.30
2022-12-13T02:44:28.203Z,75.60
2022-12-13T02:46:57.593Z,76.80
2022-12-13T02:49:27.520Z,74.20
2022-12-13T02:51:55.777Z,75.90
2022-12-13T02:54:24.209Z,73.30
2022-12-13T02:56:59.009Z,73.90
2022-12-13T02:59:29.848Z,73.20
2022-12-13T03:02:10.223Z,73.50
2022-12-13T03:05:07.352Z,73.90
2022-12-13T03:07:42.630Z,73.30
2022-12-13T03:10:15.682Z,74.50
2022-12-13T03:13:09.952Z,75.00
2022-12-13T03:15:44.933Z,75.70
2022-12-13T03:18:18.615Z,75.00
2022-12-13T03:20:48.149Z,73.90
2022-12-13T03:23:16.656Z,72.80
2022-12-13T03:25:44.891Z,69.50
2022-12-13T03:28:13.180Z,68.50
2022-12-13T03:30:40.782Z,72.90
2022-12-13T03:33:08.358Z,68.40
2022-12-13T03:35:44.877Z,67.40
2022-12-13T03:38:22.974Z,68.20
2022-12-13T03:41:04.591Z,69.80
2022-12-13T03:43:32.226Z,70.50
2022-12-13T03:45:59.817Z,69.10
2022-12-13T03:48:28.002Z,70.00
2022-12-13T03:50:55.935Z,70.10
2022-12-13T03:53:33.641Z,70.80
2022-12-13T03:56:05.641Z,71.90
2022-12-13T03:58:37.361Z,70.00
2022-12-13T04:01:07.448Z,71.50
2022-12-13T04:03:38.774Z,71.10
2022-12-13T04:06:07.653Z,66.40
2022-12-13T04:08:36.278Z,70.00
2022-12-13T04:11:24.521Z,69.00
2022-12-13T04:13:57.337Z,69.40
2022-12-13T04:16:26.393Z,68.40
2022-12-13T04:18:54.980Z,68.70
2022-12-13T04:21:26.947Z,65.90
2022-12-13T04:23:57.385Z,67.10
2022-12-13T04:26:28.917Z,67.30
2022-12-13T04:28:56.670Z,68.50
2022-12-13T04:31:24.292Z,67.50
2022-12-13T04:33:52.069Z,69.80
2022-12-13T04:36:31.601Z,69.90
2022-12-13T04:39:21.976Z,71.40
2022-12-13T04:41:54.113Z,71.40
2022-12-13T04:44:27.544Z,71.00
2022-12-13T04:47:01.311Z,67.50
2022-12-13T04:49:32.852Z,69.10
2022-12-13T04:52:01.790Z,69.10
2022-12-13T04:54:36.447Z,66.50
2022-12-13T04:57:08.575Z,66.20
2022-12-13T04:59:36.898Z,66.60
2022-12-13T05:02:05.941Z,67.50
2022-12-13T05:04:37.853Z,67.20
2022-12-13T05:07:05.421Z,70.20
2022-12-13T05:09:33.000Z,69.00
2022-12-13T05:12:01.327Z,69.40
2022-12-13T05:14:32.596Z,70.70
2022-12-13T05:17:01.110Z,69.60
2022-12-13T05:19:30.683Z,66.30
2022-12-13T05:22:02.556Z,66.30
2022-12-13T05:24:33.691Z,66.40
2022-12-13T05:27:02.121Z,63.70
2022-12-13T05:29:56.173Z,64.40
2022-12-13T05:32:43.487Z,61.30
2022-12-13T05:35:23.134Z,64.70
2022-12-13T05:37:53.489Z,65.20
2022-12-13T05:40:29.304Z,63.10
2022-12-13T05:43:00.731Z,64.90
2022-12-13T05:45:32.387Z,67.60
2022-12-13T05:48:01.181Z,68.30
2022-12-13T05:50:28.726Z,67.00
2022-12-13T05:52:56.303Z,66.00
2022-12-13T05:55:24.874Z,64.20
2022-12-13T05:57:53.106Z,61.40
2022-12-13T06:00:31.068Z,63.40
2022-12-13T06:03:01.079Z,60.50
2022-12-13T06:05:29.960Z,63.20
2022-12-13T06:07:58.268Z,60.20
2022-12-13T06:10:35.059Z,62.10
2022-12-13T06:13:22.191Z,60.50
2022-12-13T06:16:03.472Z,62.10
2022-12-13T06:18:31.869Z,62.90
2022-12-13T06:21:00.572Z,60.50
2022-12-13T06:23:28.295Z,61.20
2022-12-13T06:25:55.919Z,61.70
2022-12-13T06:28:32.529Z,61.80
2022-12-13T06:31:01.366Z,61.80
2022-12-13T06:33:29.735Z,65.20
2022-12-13T06:36:02.490Z,65.40
2022-12-13T06:38:31.422Z,66.40
2022-12-13T06:41:12.580Z,60.70
2022-12-13T06:43:44.163Z,64.60
2022-12-13T06:46:12.029Z,64.50
2022-12-13T06:48:42.305Z,65.60
2022-12-13T06:51:10.411Z,62.70
2022-12-13T06:53:39.674Z,65.70
2022-12-13T06:56:08.976Z,62.70
2022-12-13T06:58:37.087Z,61.50
2022-12-13T07:01:06.529Z,63.40
2022-12-13T07:03:43.961Z,63.20
2022-12-13T07:06:17.983Z,62.40
2022-12-13T07:11:17.039Z,65.70
2022-12-13T07:13:47.924Z,59.30
2022-12-13T07:16:15.703Z,63.00
2022-12-13T07:18:46.575Z,62.80
2022-12-13T07:21:22.245Z,61.70
2022-12-13T07:23:55.090Z,62.70
2022-12-13T07:26:24.076Z,65.80
2022-12-13T07:28:55.319Z,65.80
2022-12-13T07:31:27.059Z,62.50
2022-12-13T07:33:54.891Z,63.60
2022-12-13T07:36:23.255Z,60.50
2022-12-13T07:38:52.428Z,62.20
2022-12-13T07:41:23.513Z,63.80
2022-12-13T07:43:54.777Z,60.40
2022-12-13T07:46:32.914Z,62.30
2022-12-13T08:21:51.955Z,61.70
2022-12-13T08:24:30.215Z,59.60
2022-12-13T08:27:02.812Z,63.50
2022-12-13T08:29:37.271Z,62.80
2022-12-13T08:32:11.619Z,60.70
2022-12-13T08:34:39.490Z,60.00
2022-12-13T08:37:07.349Z,63.00
2022-12-13T08:39:39.523Z,61.70
2022-12-13T08:42:19.498Z,63.40
2022-12-13T08:44:51.363Z,65.60
2022-12-13T08:47:23.436Z,63.80
2022-12-13T08:50:02.517Z,62.60
2022-12-13T08:52:40.649Z,62.10
2022-12-13T08:55:31.745Z,59.80
2022-12-13T08:58:01.266Z,60.80
2022-12-13T09:00:35.643Z,64.70
2022-12-13T09:03:10.080Z,63.90
2022-12-13T09:05:38.414Z,63.00
2022-12-13T09:08:24.895Z,62.00
2022-12-13T09:11:10.810Z,65.40
2022-12-13T09:13:43.779Z,61.10
2022-12-13T09:16:23.151Z,61.70
2022-12-13T09:18:55.223Z,62.30
2022-12-13T09:21:31.073Z,63.80
2022-12-13T09:24:01.778Z,61.70
2022-12-13T09:26:38.351Z,61.40
2022-12-13T09:29:10.344Z,60.50
2022-12-13T09:31:40.781Z,61.70
2022-12-13T09:34:09.380Z,62.50
2022-12-13T09:36:37.201Z,62.20
2022-12-13T09:39:08.272Z,61.30
2022-12-13T09:41:40.702Z,61.30
2022-12-13T09:44:32.348Z,62.60
2022-12-13T09:47:13.340Z,61.40
2022-12-13T09:49:53.172Z,61.30
2022-12-13T09:52:22.929Z,61.30
2022-12-13T09:54:55.240Z,61.10
2022-12-13T09:57:34.496Z,62.50
2022-12-13T10:00:05.535Z,62.70
2022-12-13T10:02:36.534Z,61.50
2022-12-13T10:05:22.974Z,62.30
2022-12-13T10:07:53.333Z,63.10
2022-12-13T10:10:21.819Z,63.20
2022-12-13T10:12:52.644Z,64.60
2022-12-13T10:15:21.729Z,65.10
2022-12-13T10:17:54.986Z,63.30
2022-12-13T10:20:27.097Z,63.30
2022-12-13T10:23:31.589Z,61.90
2022-12-13T10:25:50.939Z,62.10
2022-12-13T10:28:20.209Z,62.20
2022-12-13T10:30:48.458Z,61.80
2022-12-13T10:33:27.725Z,62.10
2022-12-13T10:36:04.813Z,62.50
2022-12-13T10:38:35.878Z,62.80
2022-12-13T10:41:03.801Z,61.60
2022-12-13T10:43:32.286Z,63.10
2022-12-13T10:46:04.279Z,62.00
2022-12-13T10:48:39.100Z,62.90
2022-12-13T10:51:06.989Z,62.50
2022-12-13T10:53:55.347Z,62.90
2022-12-13T10:56:24.000Z,62.70
2022-12-13T10:59:16.976Z,63.20
2022-12-13T11:01:45.131Z,63.40
2022-12-13T11:04:31.804Z,63.10
2022-12-13T11:07:28.609Z,63.70
2022-12-13T11:10:05.374Z,63.90
2022-12-13T11:12:34.694Z,63.80
2022-12-13T11:15:04.104Z,63.90
2022-12-13T11:17:34.180Z,63.70
2022-12-13T11:20:03.331Z,64.00
2022-12-13T11:22:35.044Z,64.20
2022-12-13T11:25:22.630Z,64.10
2022-12-13T11:27:50.328Z,64.40
2022-12-13T11:30:17.809Z,64.50
2022-12-13T11:32:45.914Z,64.60
2022-12-13T11:35:25.144Z,64.00
2022-12-13T11:37:53.423Z,64.30
2022-12-13T11:40:21.012Z,64.80
2022-12-13T11:43:08.794Z,64.30
2022-12-13T11:45:52.776Z,64.50
2022-12-13T11:48:25.960Z,64.80
2022-12-13T11:50:56.761Z,64.70
2022-12-13T11:53:30.216Z,65.40
2022-12-13T11:55:57.812Z,65.60
2022-12-13T11:59:02.585Z,65.40
2022-12-13T12:01:31.404Z,65.40
2022-12-13T12:04:08.664Z,65.60
2022-12-13T12:06:43.051Z,65.50
2022-12-13T12:09:14.358Z,66.40
2022-12-13T12:12:01.493Z,66.60
2022-12-13T12:14:36.210Z,66.40
2022-12-13T12:17:06.556Z,65.90
2022-12-13T12:19:38.818Z,66.20
2022-12-13T12:22:24.725Z,66.30
2022-12-13T12:25:01.133Z,66.40
2022-12-13T12:27:37.003Z,66.80
2022-12-13T12:30:08.475Z,66.80
2022-12-13T12:32:41.210Z,66.60
2022-12-13T12:35:27.186Z,67.10
2022-12-13T12:38:17.872Z,67.30
2022-12-13T12:41:14.689Z,67.20
2022-12-13T12:43:33.186Z,67.30
2022-12-13T12:46:11.848Z,67.50
2022-12-13T12:49:01.909Z,67.60
2022-12-13T12:51:48.702Z,67.60
2022-12-13T12:54:24.194Z,67.80
2022-12-13T12:57:05.133Z,67.70
2022-12-13T12:59:41.410Z,68.00
2022-12-13T13:02:18.165Z,68.00
2022-12-13T13:04:48.940Z,68.20
2022-12-13T13:07:23.331Z,68.50
2022-12-13T13:09:55.032Z,68.60
2022-12-13T13:12:29.654Z,68.60
2022-12-13T13:14:59.100Z,68.80
2022-12-13T13:17:26.651Z,68.90
2022-12-13T13:20:11.879Z,69.10
2022-12-13T13:22:43.348Z,69.30
2022-12-13T13:25:11.947Z,69.20
2022-12-13T13:27:47.281Z,69.50
2022-12-13T13:30:18.290Z,69.50
2022-12-13T13:32:46.412Z,69.60
2022-12-13T13:35:29.221Z,69.70
2022-12-13T13:37:58.522Z,69.70
2022-12-13T13:40:35.285Z,69.50
2022-12-13T13:43:03.036Z,69.90
2022-12-13T13:45:32.494Z,69.50
2022-12-13T13:48:16.213Z,69.50
2022-12-13T13:51:08.912Z,69.60
2022-12-13T13:54:00.118Z,69.60
2022-12-13T13:56:33.684Z,69.80
2022-12-13T13:59:03.975Z,69.70
2022-12-13T14:01:43.431Z,69.70
2022-12-13T14:04:22.934Z,69.90
2022-12-13T14:07:02.539Z,70.20
2022-12-13T14:09:38.604Z,70.30
2022-12-13T14:12:06.245Z,70.50
2022-12-13T14:14:38.620Z,70.70
2022-12-13T14:17:13.225Z,70.90
2022-12-13T14:19:56.553Z,71.20
2022-12-13T14:22:29.226Z,71.40
2022-12-13T14:25:14.864Z,71.80
2022-12-13T14:27:45.568Z,71.90
2022-12-13T14:30:27.936Z,72.30
2022-12-13T14:32:56.540Z,72.20
2022-12-13T14:35:26.927Z,72.20
2022-12-13T14:37:59.448Z,72.40
2022-12-13T14:40:29.597Z,72.50
2022-12-13T14:42:57.431Z,72.60
2022-12-13T14:45:32.024Z,72.60
2022-12-13T14:48:00.825Z,72.70
2022-12-13T14:50:30.909Z,73.10
2022-12-13T14:52:58.969Z,73.00
2022-12-13T14:55:26.526Z,72.90
2022-12-13T14:57:55.460Z,72.90
2022-12-13T15:00:31.304Z,72.90
2022-12-13T15:03:00.365Z,73.00
2022-12-13T15:05:50.348Z,73.10
2022-12-13T15:08:19.727Z,73.10
2022-12-13T15:10:53.474Z,73.10
2022-12-13T15:13:20.971Z,73.30
2022-12-13T15:15:53.035Z,73.30
2022-12-13T15:18:22.230Z,73.60
2022-12-13T15:20:51.372Z,73.60
2022-12-13T15:23:22.204Z,73.60
2022-12-13T15:26:01.364Z,73.80
2022-12-13T15:28:34.031Z,73.90
2022-12-13T15:31:02.179Z,73.90
2022-12-13T15:33:35.217Z,73.90
2022-12-13T15:36:14.342Z,74.00
2022-12-13T15:38:51.018Z,74.00
2022-12-13T15:41:19.458Z,74.50
2022-12-13T15:43:48.661Z,74.60
2022-12-13T15:46:23.873Z,74.50
2022-12-13T15:48:52.279Z,74.30
2022-12-13T15:51:28.721Z,74.60
2022-12-13T15:54:02.671Z,74.50
2022-12-13T15:56:36.297Z,74.60
2022-12-13T15:59:05.183Z,74.60
2022-12-13T16:01:37.225Z,74.70
2022-12-13T16:04:05.565Z,74.60
2022-12-13T16:06:33.964Z,74.80
2022-12-13T16:09:03.286Z,74.70
2022-12-13T16:11:34.755Z,74.90
2022-12-13T16:14:48.804Z,75.00
2022-12-13T16:17:25.520Z,75.10
2022-12-13T16:19:54.114Z,75.00
2022-12-13T16:22:24.513Z,75.00
2022-12-13T16:24:52.746Z,75.10
2022-12-13T16:27:20.623Z,75.30
2022-12-13T16:29:48.108Z,75.40
2022-12-13T16:32:15.792Z,75.50
2022-12-13T16:34:43.330Z,75.60
2022-12-13T16:37:26.455Z,75.40
2022-12-13T16:39:55.394Z,75.60
2022-12-13T16:42:26.119Z,75.60
2022-12-13T16:45:32.489Z,75.50
2022-12-13T16:47:50.085Z,75.70
2022-12-13T16:50:20.591Z,75.60
2022-12-13T16:52:48.767Z,75.60
2022-12-13T16:55:16.428Z,75.80
2022-12-13T16:57:44.656Z,75.90
2022-12-13T17:00:12.830Z,75.70
2022-12-13T17:02:41.145Z,75.90
2022-12-13T17:05:09.416Z,76.10
2022-12-13T17:07:37.495Z,75.80
2022-12-13T17:10:05.163Z,75.90
2022-12-13T17:12:32.678Z,75.80
2022-12-13T17:15:00.193Z,75.90
2022-12-13T17:17:29.166Z,75.90
2022-12-13T17:19:57.768Z,75.80
2022-12-13T17:22:25.409Z,76.00
2022-12-13T17:24:52.900Z,76.10
2022-12-13T17:27:20.422Z,76.20
2022-12-13T17:29:48.154Z,76.30
2022-12-13T17:32:15.637Z,76.40
2022-12-13T17:34:43.880Z,76.30
2022-12-13T17:37:11.374Z,76.60
2022-12-13T17:39:38.847Z,76.50
2022-12-13T17:42:06.540Z,76.60
2022-12-13T17:44:34.069Z,76.60
2022-12-13T17:47:02.022Z,76.70
2022-12-13T17:49:29.491Z,76.60
2022-12-13T17:51:57.290Z,76.70
2022-12-13T17:54:25.838Z,76.70
2022-12-13T17:56:54.044Z,76.70
2022-12-13T17:59:21.981Z,76.70
2022-12-13T18:01:49.578Z,77.00
2022-12-13T18:04:17.598Z,76.90
2022-12-13T18:06:45.138Z,76.90
2022-12-13T18:09:13.239Z,77.00
2022-12-13T18:11:41.060Z,76.90
2022-12-13T18:14:09.528Z,76.90
2022-12-13T18:16:39.132Z,76.80
2022-12-13T18:19:08.684Z,76.80
2022-12-13T18:21:37.166Z,76.90
2022-12-13T18:24:05.896Z,76.80
2022-12-13T18:26:33.776Z,77.00
2022-12-13T18:29:01.335Z,76.70
2022-12-13T18:31:28.954Z,77.70
2022-12-13T18:33:56.604Z,76.90
2022-12-13T18:36:25.188Z,77.00
2022-12-13T18:38:53.074Z,77.10
2022-12-13T18:41:22.124Z,77.00
2022-12-13T18:43:54.259Z,77.10
2022-12-13T18:46:21.985Z,77.00
2022-12-13T18:48:49.532Z,77.30
2022-12-13T18:51:17.090Z,77.20
2022-12-13T18:53:44.725Z,77.30
2022-12-13T18:56:18.284Z,77.40
2022-12-13T18:58:47.115Z,77.40
2022-12-13T19:01:16.051Z,77.30
2022-12-13T19:03:45.134Z,77.50
2022-12-13T19:06:16.811Z,77.50
2022-12-13T19:08:44.486Z,77.70
2022-12-13T19:11:12.126Z,77.80
2022-12-13T19:13:39.663Z,78.00
2022-12-13T19:16:08.895Z,77.90
2022-12-13T19:18:37.209Z,78.20
2022-12-13T19:21:07.060Z,78.40
2022-12-13T19:23:34.919Z,78.30
2022-12-13T19:26:06.694Z,78.40
2022-12-13T19:28:34.307Z,78.20
2022-12-13T19:31:05.656Z,78.30
2022-12-13T19:33:33.219Z,78.00
2022-12-13T19:36:01.210Z,78.40
2022-12-13T19:38:28.719Z,78.80
2022-12-13T19:40:56.189Z,78.90
2022-12-13T19:43:24.216Z,79.00
2022-12-13T19:45:52.048Z,79.00
2022-12-13T19:48:19.543Z,79.40
2022-12-13T19:50:47.548Z,79.20
2022-12-13T19:53:15.145Z,79.60
2022-12-13T19:55:44.150Z,79.30
2022-12-13T19:58:11.721Z,79.20
2022-12-13T20:00:39.420Z,79.10
2022-12-13T20:03:07.092Z,79.30
2022-12-13T20:05:35.881Z,79.40
2022-12-13T20:08:03.699Z,79.10
2022-12-13T20:10:33.605Z,79.00
2022-12-13T20:13:01.128Z,78.80
2022-12-13T20:15:28.714Z,78.70
2022-12-13T20:17:56.213Z,79.10
2022-12-13T20:20:31.456Z,79.00
2022-12-13T20:23:04.587Z,78.90
2022-12-13T20:25:32.059Z,79.30
2022-12-13T20:27:59.585Z,79.40
2022-12-13T20:30:27.129Z,79.20
2022-12-13T20:32:54.806Z,79.10
2022-12-13T20:35:22.291Z,79.40
2022-12-13T20:37:49.760Z,79.60
2022-12-13T20:40:20.463Z,79.60
2022-12-13T20:42:50.544Z,79.90
2022-12-13T20:45:18.046Z,79.90
2022-12-13T20:47:45.562Z,80.00
2022-12-13T20:50:13.039Z,79.60
2022-12-13T20:52:40.566Z,79.80
2022-12-13T20:55:08.252Z,79.80
2022-12-13T20:57:35.781Z,80.00
2022-12-13T21:00:04.032Z,79.60
2022-12-13T21:02:31.585Z,79.50
2022-12-13T21:04:59.087Z,80.20
2022-12-13T21:07:48.243Z,80.20
2022-12-13T21:10:15.939Z,80.60
2022-12-13T21:12:43.430Z,80.50
2022-12-13T21:15:10.997Z,80.70
2022-12-13T21:17:39.340Z,80.60
2022-12-13T21:20:06.993Z,80.70
2022-12-13T21:22:34.528Z,80.80
2022-12-13T21:25:02.094Z,81.00
2022-12-13T21:27:29.609Z,81.30
2022-12-13T21:29:57.125Z,81.00
2022-12-13T21:32:24.613Z,80.20
2022-12-13T21:34:52.082Z,80.90
2022-12-13T21:37:19.621Z,80.70
2022-12-13T21:39:47.151Z,80.40
2022-12-13T21:42:15.432Z,80.60
2022-12-13T21:44:42.952Z,80.30
2022-12-13T21:47:12.573Z,80.90
2022-12-13T21:49:41.992Z,81.10
2022-12-13T21:52:16.043Z,81.30
2022-12-13T21:54:43.517Z,81.30
2022-12-13T21:57:29.253Z,80.70
2022-12-13T21:59:56.827Z,81.10
2022-12-13T22:02:24.938Z,81.20
2022-12-13T22:04:56.152Z,81.40
2022-12-13T22:07:27.787Z,81.30
2022-12-13T22:09:55.998Z,81.60
2022-12-13T22:12:37.349Z,81.70
2022-12-13T22:15:06.788Z,81.40
2022-12-13T22:17:36.134Z,81.20
2022-12-13T22:20:05.393Z,81.50
2022-12-13T22:22:33.112Z,82.00
2022-12-13T22:25:00.606Z,82.30
2022-12-13T22:27:28.134Z,82.10
2022-12-13T22:29:59.321Z,82.10
2022-12-13T22:32:28.311Z,82.70
2022-12-13T22:34:55.804Z,82.00
2022-12-13T22:37:23.397Z,82.30
2022-12-13T22:39:51.204Z,82.00
2022-12-13T22:42:18.679Z,81.90
2022-12-13T22:44:46.285Z,81.50
2022-12-13T22:47:13.773Z,81.70
2022-12-13T22:49:41.325Z,81.20
2022-12-13T22:52:09.254Z,82.30
2022-12-13T22:54:39.486Z,82.60
2022-12-13T22:57:07.075Z,82.40
2022-12-13T22:59:34.663Z,82.50
2022-12-13T23:02:04.229Z,83.10
2022-12-13T23:04:32.144Z,82.50
2022-12-13T23:07:00.124Z,84.70
2022-12-13T23:09:27.682Z,84.10
2022-12-13T23:12:13.996Z,83.50
2022-12-13T23:14:41.533Z,83.80
2022-12-13T23:17:09.601Z,83.50
2022-12-13T23:19:50.980Z,84.20
2022-12-13T23:22:24.076Z,85.00
2022-12-13T23:24:51.961Z,84.80
2022-12-13T23:27:20.480Z,84.70
2022-12-13T23:29:47.970Z,85.20
2022-12-13T23:32:15.754Z,85.80
2022-12-13T23:34:43.349Z,85.20
2022-12-13T23:37:13.876Z,84.20
2022-12-13T23:39:41.822Z,85.00
2022-12-13T23:42:10.514Z,86.10
2022-12-13T23:44:38.010Z,86.10
2022-12-13T23:47:05.546Z,86.10
2022-12-13T23:49:33.110Z,87.00
2022-12-13T23:52:00.658Z,87.00
2022-12-13T23:54:28.143Z,86.70
2022-12-13T23:56:57.246Z,86.60
2022-12-13T23:59:26.252Z,86.70
